createdAt,value
2019-02-05T00:00:33.600Z,10.13
2019-02-05T00:03:01.570Z,9.97
2019-02-05T00:05:29.315Z,9.70
2019-02-05T00:07:57.441Z,9.23
2019-02-05T00:10:25.026Z,8.90
2019-02-05T00:12:53.250Z,8.77
2019-02-05T00:15:21.298Z,9.80
2019-02-05T00:17:49.770Z,10.80
2019-02-05T00:20:17.383Z,9.57
2019-02-05T00:22:45.640Z,9.30
2019-02-05T00:25:13.812Z,9.80
2019-02-05T00:27:41.779Z,9.30
2019-02-05T00:30:09.858Z,9.30
2019-02-05T00:32:37.518Z,10.07
2019-02-05T00:35:06.134Z,9.63
2019-02-05T00:37:34.123Z,9.23
2019-02-05T00:40:02.160Z,9.70
2019-02-05T00:42:29.798Z,10.70
2019-02-05T00:44:58.175Z,10.30
2019-02-05T00:47:25.802Z,9.17
2019-02-05T00:49:53.665Z,9.00
2019-02-05T00:52:21.357Z,10.97
2019-02-05T00:54:48.994Z,10.10
2019-02-05T00:57:16.644Z,9.33
2019-02-05T00:59:44.246Z,9.63
2019-02-05T01:02:12.266Z,9.60
2019-02-05T01:04:40.176Z,9.60
2019-02-05T01:07:08.152Z,11.20
2019-02-05T01:09:36.143Z,9.73
2019-02-05T01:12:03.874Z,11.77
2019-02-05T01:14:31.517Z,10.30
2019-02-05T01:16:59.442Z,10.60
2019-02-05T01:19:27.121Z,10.27
2019-02-05T01:21:54.755Z,11.10
2019-02-05T01:24:23.006Z,9.77
2019-02-05T01:26:51.411Z,10.60
2019-02-05T01:29:19.151Z,10.40
2019-02-05T01:31:46.816Z,9.70
2019-02-05T01:34:14.794Z,10.30
2019-02-05T01:36:42.753Z,9.60
2019-02-05T01:39:10.585Z,10.80
2019-02-05T01:41:38.598Z,11.33
2019-02-05T01:44:06.730Z,8.70
2019-02-05T01:46:35.103Z,10.17
2019-02-05T01:49:03.025Z,10.60
2019-02-05T01:51:30.946Z,10.20
2019-02-05T01:53:59.669Z,10.23
2019-02-05T01:56:28.544Z,10.93
2019-02-05T01:58:56.514Z,9.00
2019-02-05T02:01:24.230Z,10.10
2019-02-05T02:03:52.155Z,11.53
2019-02-05T02:06:19.908Z,10.23
2019-02-05T02:08:48.029Z,11.23
2019-02-05T02:11:15.727Z,10.63
2019-02-05T02:13:43.587Z,11.17
2019-02-05T02:16:11.466Z,11.00
2019-02-05T02:18:39.134Z,10.27
2019-02-05T02:21:07.083Z,10.27
2019-02-05T02:23:35.178Z,10.30
2019-02-05T02:26:02.852Z,10.53
2019-02-05T02:28:30.627Z,10.83
2019-02-05T02:30:58.982Z,10.53
2019-02-05T02:33:27.452Z,10.27
2019-02-05T02:35:55.346Z,11.07
2019-02-05T02:38:23.397Z,11.40
2019-02-05T02:40:51.065Z,10.97
2019-02-05T02:43:18.722Z,10.53
2019-02-05T02:45:46.663Z,11.57
2019-02-05T02:48:15.176Z,11.73
2019-02-05T02:50:42.871Z,11.23
2019-02-05T02:53:10.799Z,10.87
2019-02-05T02:55:38.395Z,9.87
2019-02-05T02:58:06.122Z,10.63
2019-02-05T03:00:33.874Z,10.50
2019-02-05T03:03:01.853Z,9.90
2019-02-05T03:05:29.679Z,11.57
2019-02-05T03:07:57.359Z,11.50
2019-02-05T03:10:26.854Z,10.97
2019-02-05T03:12:54.809Z,11.93
2019-02-05T03:15:23.336Z,11.03
2019-02-05T03:17:51.410Z,10.73
2019-02-05T03:20:19.048Z,12.10
2019-02-05T03:22:47.070Z,10.23
2019-02-05T03:25:18.093Z,11.47
2019-02-05T03:27:46.152Z,11.53
2019-02-05T03:30:16.129Z,12.27
2019-02-05T03:32:44.130Z,10.93
2019-02-05T03:35:12.170Z,11.67
2019-02-05T03:37:40.383Z,10.10
2019-02-05T03:40:16.230Z,10.67
2019-02-05T03:42:44.201Z,11.00
2019-02-05T03:45:12.219Z,11.90
2019-02-05T03:47:40.034Z,11.43
2019-02-05T03:50:07.810Z,12.37
2019-02-05T03:52:51.230Z,11.57
2019-02-05T03:56:00.950Z,13.27
2019-02-05T03:59:10.486Z,12.13
2019-02-05T04:02:21.482Z,13.17
2019-02-05T04:05:22.857Z,12.77
2019-02-05T04:08:41.508Z,11.33
2019-02-05T04:11:56.412Z,11.70
2019-02-05T04:14:51.854Z,12.03
2019-02-05T04:17:59.482Z,12.43
2019-02-05T04:21:10.633Z,11.33
2019-02-05T04:24:32.848Z,14.77
2019-02-05T04:28:01.211Z,12.67
2019-02-05T04:31:13.706Z,12.50
2019-02-05T04:34:08.843Z,12.50
2019-02-05T04:37:03.471Z,13.40
2019-02-05T04:39:54.280Z,13.70
2019-02-05T04:43:06.324Z,12.85
2019-02-05T04:46:16.199Z,14.40
2019-02-05T04:49:02.279Z,13.17
2019-02-05T04:52:24.123Z,15.50
2019-02-05T04:55:28.303Z,12.10
2019-02-05T04:58:37.034Z,12.87
2019-02-05T05:01:33.123Z,13.70
2019-02-05T05:04:25.570Z,13.20
2019-02-05T05:07:31.498Z,17.00
2019-02-05T05:09:59.922Z,13.87
2019-02-05T05:12:28.571Z,13.03
2019-02-05T05:14:56.484Z,13.50
2019-02-05T05:17:24.458Z,15.20
2019-02-05T05:19:52.688Z,14.60
2019-02-05T05:22:20.737Z,16.90
2019-02-05T05:24:48.504Z,13.87
2019-02-05T05:27:17.953Z,14.80
2019-02-05T05:29:46.189Z,15.20
2019-02-05T05:32:13.907Z,16.77
2019-02-05T05:34:41.566Z,17.23
2019-02-05T05:37:08.108Z,15.80
2019-02-05T05:39:35.762Z,15.07
2019-02-05T05:42:03.538Z,14.90
2019-02-05T05:44:31.495Z,15.77
2019-02-05T05:46:59.192Z,15.07
2019-02-05T05:49:27.193Z,19.17
2019-02-05T05:51:55.110Z,16.67
2019-02-05T05:54:22.854Z,15.83
2019-02-05T05:56:50.473Z,17.15
2019-02-05T05:59:18.495Z,20.32
2019-02-05T06:01:46.156Z,16.15
2019-02-05T06:04:13.937Z,16.60
2019-02-05T06:06:42.443Z,17.37
2019-02-05T06:09:10.711Z,17.77
2019-02-05T06:11:38.549Z,15.93
2019-02-05T06:14:06.302Z,18.87
2019-02-05T06:16:34.043Z,17.00
2019-02-05T06:19:01.928Z,17.77
2019-02-05T06:21:29.897Z,19.43
2019-02-05T06:23:58.146Z,19.82
2019-02-05T06:26:26.790Z,19.00
2019-02-05T06:28:54.729Z,19.70
2019-02-05T06:31:22.383Z,18.13
2019-02-05T06:33:50.070Z,18.93
2019-02-05T06:36:18.057Z,19.70
2019-02-05T06:38:45.736Z,16.97
2019-02-05T06:41:13.746Z,17.87
2019-02-05T06:43:41.958Z,18.37
2019-02-05T06:46:10.610Z,17.53
2019-02-05T06:48:38.336Z,19.27
2019-02-05T06:51:06.004Z,16.20
2019-02-05T06:53:33.702Z,17.95
2019-02-05T06:56:01.960Z,18.13
2019-02-05T06:58:29.692Z,19.17
2019-02-05T07:00:57.560Z,17.27
2019-02-05T07:03:25.267Z,20.43
2019-02-05T07:05:53.319Z,20.40
2019-02-05T07:08:21.513Z,21.03
2019-02-05T07:10:49.235Z,18.73
2019-02-05T07:13:16.906Z,18.62
2019-02-05T07:15:44.812Z,21.20
2019-02-05T07:18:12.866Z,17.82
2019-02-05T07:20:40.826Z,18.53
2019-02-05T07:23:08.527Z,19.12
2019-02-05T07:25:36.618Z,19.47
2019-02-05T07:28:04.642Z,18.80
2019-02-05T07:30:32.405Z,19.53
2019-02-05T07:32:59.958Z,20.77
2019-02-05T07:35:28.136Z,17.53
2019-02-05T07:37:56.202Z,19.87
2019-02-05T07:40:23.900Z,18.47
2019-02-05T07:42:51.910Z,19.50
2019-02-05T07:45:19.907Z,17.90
2019-02-05T07:47:47.877Z,18.60
2019-02-05T07:50:17.894Z,18.67
2019-02-05T07:52:45.582Z,19.10
2019-02-05T07:55:13.336Z,17.87
2019-02-05T07:57:42.007Z,17.90
2019-02-05T08:00:18.134Z,18.10
2019-02-05T08:02:45.899Z,18.93
2019-02-05T08:05:16.070Z,19.53
2019-02-05T08:07:44.296Z,17.53
2019-02-05T08:10:13.315Z,19.10
2019-02-05T08:12:41.701Z,18.60
2019-02-05T08:15:11.595Z,18.40
2019-02-05T08:17:40.288Z,16.20
2019-02-05T08:20:08.288Z,17.90
2019-02-05T08:22:36.027Z,19.00
2019-02-05T08:25:04.375Z,19.13
2019-02-05T08:27:32.783Z,18.23
2019-02-05T08:30:00.760Z,17.97
2019-02-05T08:32:28.827Z,18.73
2019-02-05T08:34:56.794Z,18.97
2019-02-05T08:37:24.798Z,17.70
2019-02-05T08:39:52.479Z,17.40
2019-02-05T08:42:20.279Z,19.17
2019-02-05T08:44:48.353Z,19.07
2019-02-05T08:47:15.992Z,20.07
2019-02-05T08:49:44.010Z,18.77
2019-02-05T08:52:11.710Z,19.00
2019-02-05T08:54:40.228Z,20.10
2019-02-05T08:57:08.055Z,18.30
2019-02-05T08:59:35.666Z,18.20
2019-02-05T09:02:03.514Z,17.57
2019-02-05T09:04:31.434Z,17.63
2019-02-05T09:06:59.062Z,19.30
2019-02-05T09:09:27.009Z,20.37
2019-02-05T09:11:54.647Z,17.10
2019-02-05T09:14:23.146Z,18.33
2019-02-05T09:16:51.103Z,19.53
2019-02-05T09:19:18.683Z,18.60
2019-02-05T09:21:46.348Z,17.73
2019-02-05T09:24:14.216Z,16.53
2019-02-05T09:26:42.141Z,17.40
2019-02-05T09:29:10.479Z,17.60
2019-02-05T09:31:38.814Z,19.37
2019-02-05T09:34:06.434Z,17.20
2019-02-05T09:36:34.381Z,18.27
2019-02-05T09:39:04.760Z,16.23
2019-02-05T09:41:32.863Z,16.97
2019-02-05T09:44:00.822Z,17.67
2019-02-05T09:46:28.546Z,18.03
2019-02-05T09:48:56.198Z,15.70
2019-02-05T09:51:24.094Z,18.60
2019-02-05T09:53:51.644Z,17.07
2019-02-05T09:56:19.310Z,18.10
2019-02-05T09:58:46.896Z,18.20
2019-02-05T10:01:14.872Z,18.10
2019-02-05T10:03:42.817Z,16.60
2019-02-05T10:06:10.743Z,17.13
2019-02-05T10:08:38.467Z,17.10
2019-02-05T10:11:06.336Z,16.17
2019-02-05T10:13:33.994Z,15.70
2019-02-05T10:16:02.318Z,16.17
2019-02-05T10:18:30.011Z,17.07
2019-02-05T10:20:57.911Z,15.33
2019-02-05T10:23:26.090Z,17.50
2019-02-05T10:25:53.822Z,17.97
2019-02-05T10:28:22.039Z,17.37
2019-02-05T10:30:49.682Z,15.63
2019-02-05T10:33:17.730Z,16.20
2019-02-05T10:35:45.445Z,16.50
2019-02-05T10:38:13.141Z,15.30
2019-02-05T10:40:41.119Z,16.73
2019-02-05T10:43:09.287Z,14.63
2019-02-05T10:45:37.934Z,13.60
2019-02-05T10:48:07.639Z,14.50
2019-02-05T10:50:35.719Z,14.07
2019-02-05T10:53:04.400Z,14.93
2019-02-05T10:55:32.089Z,14.47
2019-02-05T10:57:59.787Z,14.50
2019-02-05T11:00:29.294Z,15.10
2019-02-05T11:02:58.547Z,14.53
2019-02-05T11:05:27.894Z,16.40
2019-02-05T11:07:55.958Z,13.90
2019-02-05T11:10:24.030Z,14.13
2019-02-05T11:12:52.393Z,14.40
2019-02-05T11:15:22.709Z,15.37
2019-02-05T11:17:50.414Z,14.93
2019-02-05T11:20:19.997Z,14.80
2019-02-05T11:22:48.095Z,14.07
2019-02-05T11:25:15.834Z,15.07
2019-02-05T11:27:45.942Z,14.83
2019-02-05T11:30:20.317Z,15.53
2019-02-05T11:32:49.263Z,15.37
2019-02-05T11:35:16.899Z,14.53
2019-02-05T11:37:44.970Z,14.37
2019-02-05T11:40:15.963Z,13.53
2019-02-05T11:42:43.579Z,16.50
2019-02-05T11:45:12.692Z,13.83
2019-02-05T11:47:40.647Z,16.67
2019-02-05T11:50:09.860Z,14.93
2019-02-05T11:52:37.537Z,14.10
2019-02-05T11:55:06.591Z,14.53
2019-02-05T11:57:34.966Z,14.77
2019-02-05T12:00:02.874Z,13.33
2019-02-05T12:02:31.078Z,15.17
2019-02-05T12:04:58.740Z,13.77
2019-02-05T12:07:26.376Z,14.27
2019-02-05T12:09:54.826Z,14.30
2019-02-05T12:12:22.387Z,14.30
2019-02-05T12:14:50.697Z,13.80
2019-02-05T12:17:18.336Z,14.23
2019-02-05T12:19:45.967Z,14.53
2019-02-05T12:22:13.715Z,13.20
2019-02-05T12:24:41.777Z,13.30
2019-02-05T12:27:09.663Z,12.87
2019-02-05T12:29:37.604Z,13.50
2019-02-05T12:32:05.536Z,13.37
2019-02-05T12:34:33.579Z,12.57
2019-02-05T12:37:01.474Z,12.77
2019-02-05T12:39:29.206Z,12.50
2019-02-05T12:41:56.795Z,13.93
2019-02-05T12:44:24.674Z,11.87
2019-02-05T12:46:52.697Z,14.30
2019-02-05T12:49:21.031Z,13.40
2019-02-05T12:51:48.970Z,12.57
2019-02-05T12:54:16.617Z,14.47
2019-02-05T12:56:44.192Z,15.00
2019-02-05T12:59:12.217Z,11.43
2019-02-05T13:01:39.811Z,12.80
2019-02-05T13:04:07.546Z,14.27
2019-02-05T13:06:35.354Z,12.73
2019-02-05T13:09:05.799Z,12.07
2019-02-05T13:11:33.416Z,13.10
2019-02-05T13:14:01.077Z,12.63
2019-02-05T13:16:29.232Z,13.50
2019-02-05T13:18:57.350Z,12.40
2019-02-05T13:21:25.206Z,12.20
2019-02-05T13:23:53.181Z,13.23
2019-02-05T13:26:21.052Z,11.53
2019-02-05T13:28:49.015Z,12.60
2019-02-05T13:31:17.330Z,13.67
2019-02-05T13:33:44.967Z,11.70
2019-02-05T13:36:12.642Z,12.90
2019-02-05T13:38:41.050Z,11.50
2019-02-05T13:41:08.675Z,10.47
2019-02-05T13:43:36.748Z,12.30
2019-02-05T13:46:05.678Z,12.23
2019-02-05T13:48:33.674Z,11.90
2019-02-05T13:51:01.947Z,12.23
2019-02-05T13:53:30.005Z,11.63
2019-02-05T13:55:57.654Z,11.87
2019-02-05T13:58:25.610Z,11.50
2019-02-05T14:00:54.763Z,11.23
2019-02-05T14:03:22.640Z,12.20
2019-02-05T14:05:51.179Z,11.50
2019-02-05T14:08:19.534Z,10.67
2019-02-05T14:10:47.811Z,10.77
2019-02-05T14:13:15.574Z,11.77
2019-02-05T14:15:44.620Z,11.77
2019-02-05T14:18:12.906Z,10.70
2019-02-05T14:20:41.002Z,11.27
2019-02-05T14:23:08.678Z,11.60
2019-02-05T14:25:36.409Z,11.13
2019-02-05T14:28:04.636Z,10.73
2019-02-05T14:30:38.000Z,11.33
2019-02-05T14:33:05.928Z,12.33
2019-02-05T14:35:33.923Z,10.60
2019-02-05T14:38:02.171Z,9.77
2019-02-05T14:40:29.795Z,10.43
2019-02-05T14:42:57.864Z,9.70
2019-02-05T14:45:25.533Z,9.83
2019-02-05T14:47:53.681Z,10.20
2019-02-05T14:50:26.094Z,9.93
2019-02-05T14:52:54.338Z,11.90
2019-02-05T14:55:22.051Z,9.60
2019-02-05T14:57:49.819Z,10.70
2019-02-05T15:00:37.433Z,10.43
2019-02-05T15:03:06.912Z,10.17
2019-02-05T15:05:34.654Z,9.53
2019-02-05T15:08:02.297Z,11.40
2019-02-05T15:10:30.025Z,10.00
2019-02-05T15:12:57.918Z,8.90
2019-02-05T15:15:25.940Z,10.20
2019-02-05T15:17:53.672Z,8.87
2019-02-05T15:20:27.539Z,10.50
2019-02-05T15:22:55.498Z,9.90
2019-02-05T15:25:23.391Z,11.73
2019-02-05T15:27:51.067Z,9.70
2019-02-05T15:30:21.851Z,9.13
2019-02-05T15:33:21.178Z,8.87
2019-02-05T15:35:55.006Z,10.00
2019-02-05T15:38:22.615Z,10.13
2019-02-05T15:40:50.728Z,9.73
2019-02-05T15:43:18.675Z,10.10
2019-02-05T15:45:46.302Z,8.87
2019-02-05T15:48:14.863Z,8.67
2019-02-05T15:50:42.498Z,9.40
2019-02-05T15:53:10.141Z,9.60
2019-02-05T15:55:37.739Z,11.17
2019-02-05T15:58:05.346Z,11.70
2019-02-05T16:00:34.753Z,9.70
2019-02-05T16:03:02.768Z,10.93
2019-02-05T16:05:31.147Z,10.93
2019-02-05T16:08:01.311Z,8.63
2019-02-05T16:10:28.966Z,8.93
2019-02-05T16:12:57.404Z,10.90
2019-02-05T16:15:25.662Z,9.13
2019-02-05T16:17:53.367Z,10.23
2019-02-05T16:20:21.159Z,9.60
2019-02-05T16:22:50.099Z,10.37
2019-02-05T16:25:18.510Z,9.40
2019-02-05T16:27:46.522Z,11.97
2019-02-05T16:30:16.677Z,9.53
2019-02-05T16:32:44.394Z,12.10
2019-02-05T16:35:13.257Z,13.23
2019-02-05T16:37:41.578Z,12.47
2019-02-05T16:40:20.191Z,12.30
2019-02-05T16:42:47.850Z,11.00
2019-02-05T16:45:18.041Z,10.40
2019-02-05T16:47:45.928Z,11.07
2019-02-05T16:50:19.646Z,10.70
2019-02-05T16:52:47.954Z,11.43
2019-02-05T16:55:16.033Z,10.60
2019-02-05T16:57:43.992Z,10.57
2019-02-05T17:00:15.406Z,11.33
2019-02-05T17:02:44.248Z,12.13
2019-02-05T17:05:12.307Z,11.70
2019-02-05T17:07:40.611Z,10.57
2019-02-05T17:10:09.858Z,8.63
2019-02-05T17:12:37.478Z,9.67
2019-02-05T17:15:07.094Z,10.53
2019-02-05T17:17:35.887Z,10.53
2019-02-05T17:20:07.429Z,10.90
2019-02-05T17:22:35.999Z,11.57
2019-02-05T17:25:04.471Z,9.67
2019-02-05T17:27:32.274Z,10.00
2019-02-05T17:30:00.394Z,9.63
2019-02-05T17:32:39.698Z,9.60
2019-02-05T17:34:58.019Z,9.43
2019-02-05T17:37:26.062Z,10.00
2019-02-05T17:39:54.118Z,11.07
2019-02-05T17:42:22.090Z,11.80
2019-02-05T17:44:50.099Z,13.43
2019-02-05T17:47:18.553Z,12.90
2019-02-05T17:49:46.831Z,9.93
2019-02-05T17:52:14.453Z,9.20
2019-02-05T17:54:42.154Z,9.60
2019-02-05T17:57:10.255Z,8.80
2019-02-05T17:59:38.226Z,9.53
2019-02-05T18:02:07.619Z,9.97
2019-02-05T18:04:35.287Z,11.53
2019-02-05T18:07:03.387Z,10.67
2019-02-05T18:09:31.162Z,10.93
2019-02-05T18:11:58.811Z,12.37
2019-02-05T18:14:26.850Z,13.73
2019-02-05T18:16:54.883Z,12.30
2019-02-05T18:19:23.175Z,14.53
2019-02-05T18:21:50.986Z,13.33
2019-02-05T18:24:18.712Z,13.67
2019-02-05T18:26:46.291Z,13.47
2019-02-05T18:29:13.923Z,14.27
2019-02-05T18:31:42.451Z,13.53
2019-02-05T18:34:10.430Z,14.53
2019-02-05T18:36:38.633Z,15.63
2019-02-05T18:39:08.467Z,17.07
2019-02-05T18:41:36.465Z,16.43
2019-02-05T18:44:04.574Z,14.30
2019-02-05T18:46:32.188Z,13.27
2019-02-05T18:49:05.040Z,12.50
2019-02-05T18:51:29.663Z,12.77
2019-02-05T18:53:57.594Z,14.57
2019-02-05T18:56:25.510Z,11.93
2019-02-05T18:58:54.145Z,12.57
2019-02-05T19:01:21.756Z,10.33
2019-02-05T19:03:50.095Z,11.50
2019-02-05T19:06:18.096Z,11.27
2019-02-05T19:08:45.842Z,12.40
2019-02-05T19:11:13.811Z,11.93
2019-02-05T19:13:41.476Z,11.73
2019-02-05T19:16:09.335Z,11.53
2019-02-05T19:18:37.318Z,10.03
2019-02-05T19:21:05.558Z,11.47
2019-02-05T19:23:34.810Z,10.60
2019-02-05T19:26:20.611Z,11.00
2019-02-05T19:28:48.303Z,11.40
2019-02-05T19:31:23.396Z,11.60
2019-02-05T19:33:51.098Z,14.10
2019-02-05T19:36:20.020Z,14.57
2019-02-05T19:38:48.040Z,12.70
2019-02-05T19:41:16.003Z,12.47
2019-02-05T19:43:43.677Z,12.40
2019-02-05T19:46:29.964Z,15.63
2019-02-05T19:49:02.370Z,13.80
2019-02-05T19:51:30.052Z,15.53
2019-02-05T19:53:57.922Z,13.80
2019-02-05T19:56:25.596Z,14.17
2019-02-05T19:58:54.754Z,12.20
2019-02-05T20:01:22.405Z,15.87
2019-02-05T20:03:50.134Z,23.27
2019-02-05T20:06:17.871Z,15.80
2019-02-05T20:08:45.554Z,16.73
2019-02-05T20:11:13.219Z,14.63
2019-02-05T20:13:41.303Z,12.33
2019-02-05T20:16:08.920Z,10.43
2019-02-05T20:18:36.650Z,11.30
2019-02-05T20:21:04.328Z,12.90
2019-02-05T20:23:31.900Z,11.57
2019-02-05T20:25:59.634Z,11.23
2019-02-05T20:28:27.549Z,11.00
2019-02-05T20:30:56.092Z,11.23
2019-02-05T20:33:23.782Z,10.47
2019-02-05T20:35:51.452Z,11.50
2019-02-05T20:38:19.157Z,10.20
2019-02-05T20:40:47.178Z,12.87
2019-02-05T20:43:14.771Z,13.40
2019-02-05T20:45:42.433Z,14.43
2019-02-05T20:48:10.067Z,13.07
2019-02-05T20:50:37.924Z,11.73
2019-02-05T20:53:13.671Z,11.60
2019-02-05T20:55:35.705Z,11.60
2019-02-05T20:58:06.011Z,12.07
2019-02-05T21:00:34.355Z,12.90
2019-02-05T21:03:02.339Z,12.40
2019-02-05T21:05:30.427Z,12.17
2019-02-05T21:07:58.351Z,13.63
2019-02-05T21:10:26.455Z,16.07
2019-02-05T21:12:54.674Z,19.97
2019-02-05T21:15:23.217Z,15.80
2019-02-05T21:17:51.435Z,14.60
2019-02-05T21:20:28.782Z,14.67
2019-02-05T21:22:50.142Z,15.00
2019-02-05T21:25:20.247Z,13.77
2019-02-05T21:27:47.903Z,14.53
2019-02-05T21:30:17.566Z,12.93
2019-02-05T21:32:47.857Z,15.03
2019-02-05T21:35:15.405Z,12.93
2019-02-05T21:37:43.634Z,15.13
2019-02-05T21:40:16.694Z,15.37
2019-02-05T21:42:44.731Z,20.63
2019-02-05T21:45:17.047Z,19.23
2019-02-05T21:47:45.007Z,16.80
2019-02-05T21:50:14.838Z,19.00
2019-02-05T21:52:43.150Z,18.90
2019-02-05T21:55:11.267Z,17.40
2019-02-05T21:57:39.322Z,18.43
2019-02-05T22:00:13.818Z,14.03
2019-02-05T22:02:41.852Z,15.20
2019-02-05T22:05:09.670Z,17.17
2019-02-05T22:07:37.304Z,19.40
2019-02-05T22:10:05.620Z,22.00
2019-02-05T22:12:33.486Z,21.47
2019-02-05T22:15:01.756Z,23.70
2019-02-05T22:17:29.392Z,19.47
2019-02-05T22:19:57.045Z,16.60
2019-02-05T22:22:25.066Z,16.23
2019-02-05T22:24:52.815Z,17.23
2019-02-05T22:27:20.466Z,19.90
2019-02-05T22:29:48.234Z,16.30
2019-02-05T22:32:15.924Z,16.23
2019-02-05T22:34:43.891Z,15.27
2019-02-05T22:37:11.838Z,17.43
2019-02-05T22:39:39.977Z,14.27
2019-02-05T22:42:07.994Z,14.60
2019-02-05T22:44:36.354Z,13.83
2019-02-05T22:47:04.511Z,14.77
2019-02-05T22:49:32.519Z,14.70
2019-02-05T22:52:00.441Z,14.03
2019-02-05T22:54:28.486Z,13.80
2019-02-05T22:56:56.398Z,19.20
2019-02-05T22:59:24.354Z,19.67
2019-02-05T23:01:54.571Z,19.90
2019-02-05T23:04:54.708Z,21.77
2019-02-05T23:07:24.140Z,20.63
2019-02-05T23:10:44.068Z,20.40
2019-02-05T23:13:17.171Z,19.50
2019-02-05T23:15:46.746Z,17.60
2019-02-05T23:18:14.686Z,20.90
2019-02-05T23:20:42.307Z,14.43
2019-02-05T23:23:10.023Z,13.00
2019-02-05T23:25:37.638Z,12.07
2019-02-05T23:28:05.510Z,12.37
2019-02-05T23:30:33.260Z,11.40
2019-02-05T23:33:01.164Z,13.10
2019-02-05T23:35:29.201Z,12.70
2019-02-05T23:37:58.703Z,11.63
2019-02-05T23:40:26.415Z,15.30
2019-02-05T23:42:54.134Z,14.07
2019-02-05T23:45:21.814Z,14.33
2019-02-05T23:47:49.610Z,13.77
2019-02-05T23:50:17.282Z,14.33
2019-02-05T23:52:45.530Z,11.87
2019-02-05T23:55:14.589Z,12.17
2019-02-05T23:57:42.335Z,11.80
